sensor_id;sensor_type;location;lat;lon;timestamp;temperature;humidity
52869;DHT22;39100;53.480;6.158;2022-12-05T00:02:16;5.90;99.90
52869;DHT22;39100;53.480;6.158;2022-12-05T00:04:41;5.90;99.90
52869;DHT22;39100;53.480;6.158;2022-12-05T00:07:08;5.90;99.90
52869;DHT22;39100;53.480;6.158;2022-12-05T00:09:33;5.90;99.90
52869;DHT22;39100;53.480;6.158;2022-12-05T00:11:59;5.90;99.90
52869;DHT22;39100;53.480;6.158;2022-12-05T00:14:24;5.90;99.90
52869;DHT22;39100;53.480;6.158;2022-12-05T00:16:50;5.90;99.90
52869;DHT22;39100;53.480;6.158;2022-12-05T00:19:16;6.00;99.90
52869;DHT22;39100;53.480;6.158;2022-12-05T00:21:42;5.90;99.90
52869;DHT22;39100;53.480;6.158;2022-12-05T00:24:11;5.90;99.90
52869;DHT22;39100;53.480;6.158;2022-12-05T00:26:37;5.90;99.90
52869;DHT22;39100;53.480;6.158;2022-12-05T00:29:03;5.90;99.90
52869;DHT22;39100;53.480;6.158;2022-12-05T00:31:28;6.00;99.90
52869;DHT22;39100;53.480;6.158;2022-12-05T00:33:55;6.00;99.90
52869;DHT22;39100;53.480;6.158;2022-12-05T00:36:23;5.90;99.90
52869;DHT22;39100;53.480;6.158;2022-12-05T00:38:49;5.90;99.90
52869;DHT22;39100;53.480;6.158;2022-12-05T00:41:18;5.90;99.90
52869;DHT22;39100;53.480;6.158;2022-12-05T00:43:44;6.00;99.90
52869;DHT22;39100;53.480;6.158;2022-12-05T00:46:14;6.00;99.90
52869;DHT22;39100;53.480;6.158;2022-12-05T00:48:40;6.00;99.90
52869;DHT22;39100;53.480;6.158;2022-12-05T00:51:08;6.00;99.90
52869;DHT22;39100;53.480;6.158;2022-12-05T00:53:34;6.00;99.90
52869;DHT22;39100;53.480;6.158;2022-12-05T00:56:04;6.10;99.90
52869;DHT22;39100;53.480;6.158;2022-12-05T00:58:31;6.10;99.90
52869;DHT22;39100;53.480;6.158;2022-12-05T01:00:57;6.10;99.90
52869;DHT22;39100;53.480;6.158;2022-12-05T01:03:29;6.20;99.90
52869;DHT22;39100;53.480;6.158;2022-12-05T01:05:54;6.20;99.90
52869;DHT22;39100;53.480;6.158;2022-12-05T01:08:20;6.20;99.90
52869;DHT22;39100;53.480;6.158;2022-12-05T01:10:55;6.30;99.90
52869;DHT22;39100;53.480;6.158;2022-12-05T01:13:22;6.30;99.90
52869;DHT22;39100;53.480;6.158;2022-12-05T01:15:48;6.30;99.90
52869;DHT22;39100;53.480;6.158;2022-12-05T01:18:14;6.30;99.90
52869;DHT22;39100;53.480;6.158;2022-12-05T01:20:41;6.40;99.90
52869;DHT22;39100;53.480;6.158;2022-12-05T01:23:07;6.40;99.90
52869;DHT22;39100;53.480;6.158;2022-12-05T01:25:33;6.40;99.90
52869;DHT22;39100;53.480;6.158;2022-12-05T01:28:01;6.40;99.90
52869;DHT22;39100;53.480;6.158;2022-12-05T01:30:27;6.40;99.90
52869;DHT22;39100;53.480;6.158;2022-12-05T01:32:53;6.50;99.90
52869;DHT22;39100;53.480;6.158;2022-12-05T01:35:19;6.40;99.90
52869;DHT22;39100;53.480;6.158;2022-12-05T01:37:44;6.40;99.90
52869;DHT22;39100;53.480;6.158;2022-12-05T01:40:10;6.40;99.90
52869;DHT22;39100;53.480;6.158;2022-12-05T01:42:36;6.40;99.90
52869;DHT22;39100;53.480;6.158;2022-12-05T01:45:15;6.40;99.90
52869;DHT22;39100;53.480;6.158;2022-12-05T01:47:41;6.40;99.90
52869;DHT22;39100;53.480;6.158;2022-12-05T01:50:07;6.50;99.90
52869;DHT22;39100;53.480;6.158;2022-12-05T01:52:34;6.50;99.90
52869;DHT22;39100;53.480;6.158;2022-12-05T01:55:09;6.70;99.90
52869;DHT22;39100;53.480;6.158;2022-12-05T01:57:36;6.50;99.90
52869;DHT22;39100;53.480;6.158;2022-12-05T02:00:10;6.50;99.90
52869;DHT22;39100;53.480;6.158;2022-12-05T02:02:38;6.50;99.90
52869;DHT22;39100;53.480;6.158;2022-12-05T02:05:08;6.50;99.90
52869;DHT22;39100;53.480;6.158;2022-12-05T02:07:37;6.50;99.90
52869;DHT22;39100;53.480;6.158;2022-12-05T02:10:05;6.50;99.90
52869;DHT22;39100;53.480;6.158;2022-12-05T02:12:32;6.50;99.90
52869;DHT22;39100;53.480;6.158;2022-12-05T02:17:54;6.50;99.90
52869;DHT22;39100;53.480;6.158;2022-12-05T02:20:48;6.50;99.90
52869;DHT22;39100;53.480;6.158;2022-12-05T02:26:22;6.50;99.90
52869;DHT22;39100;53.480;6.158;2022-12-05T02:34:16;6.60;99.90
52869;DHT22;39100;53.480;6.158;2022-12-05T02:36:55;6.50;99.90
52869;DHT22;39100;53.480;6.158;2022-12-05T02:42:12;6.60;99.90
52869;DHT22;39100;53.480;6.158;2022-12-05T02:44:44;6.60;99.90
52869;DHT22;39100;53.480;6.158;2022-12-05T02:47:13;6.50;99.90
52869;DHT22;39100;53.480;6.158;2022-12-05T02:49:41;6.60;99.90
52869;DHT22;39100;53.480;6.158;2022-12-05T02:52:12;6.50;99.90
52869;DHT22;39100;53.480;6.158;2022-12-05T02:54:41;6.50;99.90
52869;DHT22;39100;53.480;6.158;2022-12-05T02:57:08;6.50;99.90
52869;DHT22;39100;53.480;6.158;2022-12-05T02:59:34;6.50;99.90
52869;DHT22;39100;53.480;6.158;2022-12-05T03:02:01;6.50;99.90
52869;DHT22;39100;53.480;6.158;2022-12-05T03:04:27;6.50;99.90
52869;DHT22;39100;53.480;6.158;2022-12-05T03:06:58;6.60;99.90
52869;DHT22;39100;53.480;6.158;2022-12-05T03:12:25;6.50;99.90
52869;DHT22;39100;53.480;6.158;2022-12-05T03:17:27;6.50;99.90
52869;DHT22;39100;53.480;6.158;2022-12-05T03:20:27;6.60;99.90
52869;DHT22;39100;53.480;6.158;2022-12-05T03:23:02;6.60;99.90
52869;DHT22;39100;53.480;6.158;2022-12-05T03:25:38;6.50;99.90
52869;DHT22;39100;53.480;6.158;2022-12-05T03:28:13;6.60;99.90
52869;DHT22;39100;53.480;6.158;2022-12-05T03:30:44;6.50;99.90
52869;DHT22;39100;53.480;6.158;2022-12-05T03:33:14;6.60;99.90
52869;DHT22;39100;53.480;6.158;2022-12-05T03:38:32;6.60;99.90
52869;DHT22;39100;53.480;6.158;2022-12-05T03:41:04;6.60;99.90
52869;DHT22;39100;53.480;6.158;2022-12-05T03:46:23;6.60;99.90
52869;DHT22;39100;53.480;6.158;2022-12-05T03:49:21;6.50;99.90
52869;DHT22;39100;53.480;6.158;2022-12-05T03:51:57;6.60;99.90
52869;DHT22;39100;53.480;6.158;2022-12-05T03:54:48;6.60;99.90
52869;DHT22;39100;53.480;6.158;2022-12-05T03:57:21;6.50;99.90
52869;DHT22;39100;53.480;6.158;2022-12-05T04:02:21;6.60;99.90
52869;DHT22;39100;53.480;6.158;2022-12-05T04:04:57;6.50;99.90
52869;DHT22;39100;53.480;6.158;2022-12-05T04:07:26;6.50;99.90
52869;DHT22;39100;53.480;6.158;2022-12-05T04:09:59;6.50;99.90
52869;DHT22;39100;53.480;6.158;2022-12-05T04:12:28;6.50;99.90
52869;DHT22;39100;53.480;6.158;2022-12-05T04:14:57;6.50;99.90
52869;DHT22;39100;53.480;6.158;2022-12-05T04:17:38;6.50;99.90
52869;DHT22;39100;53.480;6.158;2022-12-05T04:20:21;6.50;99.90
52869;DHT22;39100;53.480;6.158;2022-12-05T04:23:08;6.60;99.90
52869;DHT22;39100;53.480;6.158;2022-12-05T04:31:20;6.50;99.90
52869;DHT22;39100;53.480;6.158;2022-12-05T04:33:54;6.50;99.90
52869;DHT22;39100;53.480;6.158;2022-12-05T04:41:36;6.50;99.90
52869;DHT22;39100;53.480;6.158;2022-12-05T04:44:09;6.50;99.90
52869;DHT22;39100;53.480;6.158;2022-12-05T04:46:38;6.50;99.90
52869;DHT22;39100;53.480;6.158;2022-12-05T04:49:07;6.50;99.90
52869;DHT22;39100;53.480;6.158;2022-12-05T04:51:36;6.50;99.90
52869;DHT22;39100;53.480;6.158;2022-12-05T04:54:12;6.50;99.90
52869;DHT22;39100;53.480;6.158;2022-12-05T04:56:40;6.50;99.90
52869;DHT22;39100;53.480;6.158;2022-12-05T04:59:08;6.50;99.90
52869;DHT22;39100;53.480;6.158;2022-12-05T05:01:50;6.60;99.90
52869;DHT22;39100;53.480;6.158;2022-12-05T05:04:26;6.60;99.90
52869;DHT22;39100;53.480;6.158;2022-12-05T05:06:54;6.50;99.90
52869;DHT22;39100;53.480;6.158;2022-12-05T05:09:19;6.50;99.90
52869;DHT22;39100;53.480;6.158;2022-12-05T05:11:45;6.60;99.90
52869;DHT22;39100;53.480;6.158;2022-12-05T05:14:11;6.50;99.90
52869;DHT22;39100;53.480;6.158;2022-12-05T05:16:39;6.60;99.90
52869;DHT22;39100;53.480;6.158;2022-12-05T05:19:06;6.50;99.90
52869;DHT22;39100;53.480;6.158;2022-12-05T05:21:37;6.50;99.90
52869;DHT22;39100;53.480;6.158;2022-12-05T05:24:04;6.50;99.90
52869;DHT22;39100;53.480;6.158;2022-12-05T05:26:33;6.50;99.90
52869;DHT22;39100;53.480;6.158;2022-12-05T05:28:58;6.50;99.90
52869;DHT22;39100;53.480;6.158;2022-12-05T05:31:24;6.50;99.90
52869;DHT22;39100;53.480;6.158;2022-12-05T05:33:53;6.50;99.90
52869;DHT22;39100;53.480;6.158;2022-12-05T05:36:21;6.40;99.90
52869;DHT22;39100;53.480;6.158;2022-12-05T05:38:49;6.40;99.90
52869;DHT22;39100;53.480;6.158;2022-12-05T05:41:20;6.40;99.90
52869;DHT22;39100;53.480;6.158;2022-12-05T05:43:46;6.40;99.90
52869;DHT22;39100;53.480;6.158;2022-12-05T05:46:14;6.40;99.90
52869;DHT22;39100;53.480;6.158;2022-12-05T05:48:40;6.50;99.90
52869;DHT22;39100;53.480;6.158;2022-12-05T05:51:07;6.50;99.90
52869;DHT22;39100;53.480;6.158;2022-12-05T05:53:34;6.50;99.90
52869;DHT22;39100;53.480;6.158;2022-12-05T05:56:04;6.50;99.90
52869;DHT22;39100;53.480;6.158;2022-12-05T05:58:30;6.50;99.90
52869;DHT22;39100;53.480;6.158;2022-12-05T06:01:12;6.50;99.90
52869;DHT22;39100;53.480;6.158;2022-12-05T06:03:38;6.70;99.90
52869;DHT22;39100;53.480;6.158;2022-12-05T06:06:06;6.50;99.90
52869;DHT22;39100;53.480;6.158;2022-12-05T06:08:34;6.50;99.90
52869;DHT22;39100;53.480;6.158;2022-12-05T06:11:08;6.50;99.90
52869;DHT22;39100;53.480;6.158;2022-12-05T06:13:34;6.50;99.90
52869;DHT22;39100;53.480;6.158;2022-12-05T06:16:00;6.50;99.90
52869;DHT22;39100;53.480;6.158;2022-12-05T06:18:25;6.60;99.90
52869;DHT22;39100;53.480;6.158;2022-12-05T06:20:55;6.60;99.90
52869;DHT22;39100;53.480;6.158;2022-12-05T06:23:21;6.50;99.90
52869;DHT22;39100;53.480;6.158;2022-12-05T06:25:53;6.50;99.90
52869;DHT22;39100;53.480;6.158;2022-12-05T06:28:22;6.60;99.90
52869;DHT22;39100;53.480;6.158;2022-12-05T06:30:48;6.60;99.90
52869;DHT22;39100;53.480;6.158;2022-12-05T06:33:14;6.60;99.90
52869;DHT22;39100;53.480;6.158;2022-12-05T06:35:39;6.60;99.90
52869;DHT22;39100;53.480;6.158;2022-12-05T06:38:05;6.60;99.90
52869;DHT22;39100;53.480;6.158;2022-12-05T06:40:32;6.60;99.90
52869;DHT22;39100;53.480;6.158;2022-12-05T06:42:58;6.60;99.90
52869;DHT22;39100;53.480;6.158;2022-12-05T06:45:23;6.60;99.90
52869;DHT22;39100;53.480;6.158;2022-12-05T06:47:52;6.60;99.90
52869;DHT22;39100;53.480;6.158;2022-12-05T06:50:18;6.60;99.90
52869;DHT22;39100;53.480;6.158;2022-12-05T06:52:44;6.60;99.90
52869;DHT22;39100;53.480;6.158;2022-12-05T06:55:09;6.60;99.90
52869;DHT22;39100;53.480;6.158;2022-12-05T06:57:35;6.60;99.90
52869;DHT22;39100;53.480;6.158;2022-12-05T07:00:02;6.60;99.90
52869;DHT22;39100;53.480;6.158;2022-12-05T07:02:50;6.60;99.90
52869;DHT22;39100;53.480;6.158;2022-12-05T07:05:15;6.60;99.90
52869;DHT22;39100;53.480;6.158;2022-12-05T07:07:41;7.10;99.90
52869;DHT22;39100;53.480;6.158;2022-12-05T07:10:07;6.60;99.90
52869;DHT22;39100;53.480;6.158;2022-12-05T07:12:32;6.60;99.90
52869;DHT22;39100;53.480;6.158;2022-12-05T07:14:59;6.60;99.90
52869;DHT22;39100;53.480;6.158;2022-12-05T07:17:24;6.60;99.90
52869;DHT22;39100;53.480;6.158;2022-12-05T07:19:51;6.60;99.90
52869;DHT22;39100;53.480;6.158;2022-12-05T07:22:18;6.70;99.90
52869;DHT22;39100;53.480;6.158;2022-12-05T07:24:44;6.60;99.90
52869;DHT22;39100;53.480;6.158;2022-12-05T07:27:12;6.60;99.90
52869;DHT22;39100;53.480;6.158;2022-12-05T07:29:38;6.70;99.90
52869;DHT22;39100;53.480;6.158;2022-12-05T07:32:04;6.70;99.90
52869;DHT22;39100;53.480;6.158;2022-12-05T07:34:30;6.70;99.90
52869;DHT22;39100;53.480;6.158;2022-12-05T07:36:55;6.60;99.90
52869;DHT22;39100;53.480;6.158;2022-12-05T07:39:21;6.70;99.90
52869;DHT22;39100;53.480;6.158;2022-12-05T07:41:46;6.70;99.90
52869;DHT22;39100;53.480;6.158;2022-12-05T07:44:12;6.70;99.90
52869;DHT22;39100;53.480;6.158;2022-12-05T07:46:38;6.70;99.90
52869;DHT22;39100;53.480;6.158;2022-12-05T07:49:04;6.60;99.90
52869;DHT22;39100;53.480;6.158;2022-12-05T07:51:31;6.70;99.90
52869;DHT22;39100;53.480;6.158;2022-12-05T07:53:58;7.10;99.90
52869;DHT22;39100;53.480;6.158;2022-12-05T07:56:24;6.70;99.90
52869;DHT22;39100;53.480;6.158;2022-12-05T07:58:50;6.70;99.90
52869;DHT22;39100;53.480;6.158;2022-12-05T08:01:26;6.70;99.90
52869;DHT22;39100;53.480;6.158;2022-12-05T08:03:54;6.70;99.90
52869;DHT22;39100;53.480;6.158;2022-12-05T08:06:23;6.80;99.90
52869;DHT22;39100;53.480;6.158;2022-12-05T08:08:49;6.80;99.90
52869;DHT22;39100;53.480;6.158;2022-12-05T08:11:24;6.80;99.90
52869;DHT22;39100;53.480;6.158;2022-12-05T08:13:51;6.80;99.90
52869;DHT22;39100;53.480;6.158;2022-12-05T08:16:19;6.80;99.90
52869;DHT22;39100;53.480;6.158;2022-12-05T08:18:46;6.80;99.90
52869;DHT22;39100;53.480;6.158;2022-12-05T08:21:16;6.80;99.90
52869;DHT22;39100;53.480;6.158;2022-12-05T08:23:43;6.80;99.90
52869;DHT22;39100;53.480;6.158;2022-12-05T08:28:34;6.90;99.90
52869;DHT22;39100;53.480;6.158;2022-12-05T08:31:09;6.90;99.90
52869;DHT22;39100;53.480;6.158;2022-12-05T08:33:35;6.90;99.90
52869;DHT22;39100;53.480;6.158;2022-12-05T08:36:03;6.90;99.90
52869;DHT22;39100;53.480;6.158;2022-12-05T08:38:30;6.90;99.90
52869;DHT22;39100;53.480;6.158;2022-12-05T08:40:55;6.90;99.90
52869;DHT22;39100;53.480;6.158;2022-12-05T08:43:21;7.70;99.90
52869;DHT22;39100;53.480;6.158;2022-12-05T08:45:49;6.90;99.90
52869;DHT22;39100;53.480;6.158;2022-12-05T08:48:15;6.90;99.90
52869;DHT22;39100;53.480;6.158;2022-12-05T08:50:41;7.00;99.90
52869;DHT22;39100;53.480;6.158;2022-12-05T08:53:06;7.00;99.90
52869;DHT22;39100;53.480;6.158;2022-12-05T08:55:33;7.00;99.90
52869;DHT22;39100;53.480;6.158;2022-12-05T08:57:59;7.00;99.90
52869;DHT22;39100;53.480;6.158;2022-12-05T09:00:25;7.00;99.90
52869;DHT22;39100;53.480;6.158;2022-12-05T09:02:50;7.60;99.90
52869;DHT22;39100;53.480;6.158;2022-12-05T09:05:19;7.10;99.90
52869;DHT22;39100;53.480;6.158;2022-12-05T09:07:44;7.10;99.90
52869;DHT22;39100;53.480;6.158;2022-12-05T09:10:10;7.10;99.90
52869;DHT22;39100;53.480;6.158;2022-12-05T09:12:36;7.10;99.90
52869;DHT22;39100;53.480;6.158;2022-12-05T09:15:03;7.10;99.90
52869;DHT22;39100;53.480;6.158;2022-12-05T09:17:30;7.10;99.90
52869;DHT22;39100;53.480;6.158;2022-12-05T09:19:55;7.20;99.90
52869;DHT22;39100;53.480;6.158;2022-12-05T09:22:21;7.20;99.90
52869;DHT22;39100;53.480;6.158;2022-12-05T09:24:47;7.20;99.90
52869;DHT22;39100;53.480;6.158;2022-12-05T09:27:13;7.20;99.90
52869;DHT22;39100;53.480;6.158;2022-12-05T09:29:38;7.20;99.90
52869;DHT22;39100;53.480;6.158;2022-12-05T09:32:04;7.20;99.90
52869;DHT22;39100;53.480;6.158;2022-12-05T09:34:30;7.20;99.90
52869;DHT22;39100;53.480;6.158;2022-12-05T09:36:55;7.60;99.90
52869;DHT22;39100;53.480;6.158;2022-12-05T09:39:22;7.20;99.90
52869;DHT22;39100;53.480;6.158;2022-12-05T09:42:21;7.20;99.90
52869;DHT22;39100;53.480;6.158;2022-12-05T09:45:09;7.20;99.90
52869;DHT22;39100;53.480;6.158;2022-12-05T09:47:52;7.20;99.90
52869;DHT22;39100;53.480;6.158;2022-12-05T09:50:31;7.30;99.90
52869;DHT22;39100;53.480;6.158;2022-12-05T09:56:05;7.30;99.90
52869;DHT22;39100;53.480;6.158;2022-12-05T09:58:53;7.30;99.90
52869;DHT22;39100;53.480;6.158;2022-12-05T10:01:33;7.20;99.90
52869;DHT22;39100;53.480;6.158;2022-12-05T10:12:19;7.30;99.90
52869;DHT22;39100;53.480;6.158;2022-12-05T10:17:37;7.20;99.90
52869;DHT22;39100;53.480;6.158;2022-12-05T10:20:11;7.30;99.90
52869;DHT22;39100;53.480;6.158;2022-12-05T10:22:51;7.30;99.90
52869;DHT22;39100;53.480;6.158;2022-12-05T10:25:19;7.20;99.90
52869;DHT22;39100;53.480;6.158;2022-12-05T10:27:57;7.30;99.90
52869;DHT22;39100;53.480;6.158;2022-12-05T10:30:29;7.30;99.90
52869;DHT22;39100;53.480;6.158;2022-12-05T10:32:59;6.50;99.90
52869;DHT22;39100;53.480;6.158;2022-12-05T10:35:35;7.30;99.90
52869;DHT22;39100;53.480;6.158;2022-12-05T10:38:08;7.30;99.90
52869;DHT22;39100;53.480;6.158;2022-12-05T10:40:39;7.20;99.90
52869;DHT22;39100;53.480;6.158;2022-12-05T10:43:05;7.30;99.90
52869;DHT22;39100;53.480;6.158;2022-12-05T10:45:43;7.30;99.90
52869;DHT22;39100;53.480;6.158;2022-12-05T10:48:15;7.30;99.90
52869;DHT22;39100;53.480;6.158;2022-12-05T10:50:43;7.30;99.90
52869;DHT22;39100;53.480;6.158;2022-12-05T10:53:15;7.40;99.90
52869;DHT22;39100;53.480;6.158;2022-12-05T10:55:44;7.40;99.90
52869;DHT22;39100;53.480;6.158;2022-12-05T10:58:22;7.40;99.90
52869;DHT22;39100;53.480;6.158;2022-12-05T11:00:52;7.40;99.90
52869;DHT22;39100;53.480;6.158;2022-12-05T11:03:30;7.40;99.90
52869;DHT22;39100;53.480;6.158;2022-12-05T11:05:59;7.40;99.90
52869;DHT22;39100;53.480;6.158;2022-12-05T11:08:31;7.90;99.90
52869;DHT22;39100;53.480;6.158;2022-12-05T11:11:22;7.40;99.90
52869;DHT22;39100;53.480;6.158;2022-12-05T11:14:19;7.40;99.90
52869;DHT22;39100;53.480;6.158;2022-12-05T11:16:52;7.40;99.90
52869;DHT22;39100;53.480;6.158;2022-12-05T11:19:30;7.40;99.90
52869;DHT22;39100;53.480;6.158;2022-12-05T11:22:00;7.40;99.90
52869;DHT22;39100;53.480;6.158;2022-12-05T11:24:38;8.20;99.90
52869;DHT22;39100;53.480;6.158;2022-12-05T11:29:43;7.50;99.90
52869;DHT22;39100;53.480;6.158;2022-12-05T11:32:24;7.40;99.90
52869;DHT22;39100;53.480;6.158;2022-12-05T11:37:50;7.70;99.90
52869;DHT22;39100;53.480;6.158;2022-12-05T11:40:42;7.40;99.90
52869;DHT22;39100;53.480;6.158;2022-12-05T11:51:41;7.30;99.90
52869;DHT22;39100;53.480;6.158;2022-12-05T11:54:22;7.30;99.90
52869;DHT22;39100;53.480;6.158;2022-12-05T11:56:56;7.20;99.90
52869;DHT22;39100;53.480;6.158;2022-12-05T11:59:49;7.30;99.90
52869;DHT22;39100;53.480;6.158;2022-12-05T12:05:31;7.20;99.90
52869;DHT22;39100;53.480;6.158;2022-12-05T12:08:26;7.20;99.90
52869;DHT22;39100;53.480;6.158;2022-12-05T12:19:01;7.10;99.90
52869;DHT22;39100;53.480;6.158;2022-12-05T12:28:00;7.00;99.90
52869;DHT22;39100;53.480;6.158;2022-12-05T12:36:25;7.00;99.90
52869;DHT22;39100;53.480;6.158;2022-12-05T12:39:06;7.10;99.90
52869;DHT22;39100;53.480;6.158;2022-12-05T12:41:52;7.00;99.90
52869;DHT22;39100;53.480;6.158;2022-12-05T12:50:33;6.90;99.90
52869;DHT22;39100;53.480;6.158;2022-12-05T12:55:48;6.90;99.90
52869;DHT22;39100;53.480;6.158;2022-12-05T13:03:45;6.80;99.90
52869;DHT22;39100;53.480;6.158;2022-12-05T13:06:14;6.90;99.90
52869;DHT22;39100;53.480;6.158;2022-12-05T13:08:49;6.90;99.90
52869;DHT22;39100;53.480;6.158;2022-12-05T13:11:19;6.90;99.90
52869;DHT22;39100;53.480;6.158;2022-12-05T13:13:51;6.90;99.90
52869;DHT22;39100;53.480;6.158;2022-12-05T13:16:31;6.90;99.90
52869;DHT22;39100;53.480;6.158;2022-12-05T13:18:58;6.90;99.90
52869;DHT22;39100;53.480;6.158;2022-12-05T13:21:24;6.90;99.90
52869;DHT22;39100;53.480;6.158;2022-12-05T13:23:53;6.90;99.90
52869;DHT22;39100;53.480;6.158;2022-12-05T13:26:20;6.90;99.90
52869;DHT22;39100;53.480;6.158;2022-12-05T13:29:02;6.90;99.90
52869;DHT22;39100;53.480;6.158;2022-12-05T13:31:37;6.90;99.90
52869;DHT22;39100;53.480;6.158;2022-12-05T13:34:03;6.90;99.90
52869;DHT22;39100;53.480;6.158;2022-12-05T13:36:38;6.80;99.90
52869;DHT22;39100;53.480;6.158;2022-12-05T13:39:23;6.90;99.90
52869;DHT22;39100;53.480;6.158;2022-12-05T13:42:28;6.90;99.90
52869;DHT22;39100;53.480;6.158;2022-12-05T13:45:08;6.90;99.90
52869;DHT22;39100;53.480;6.158;2022-12-05T13:50:28;6.90;99.90
52869;DHT22;39100;53.480;6.158;2022-12-05T14:00:46;6.90;99.90
52869;DHT22;39100;53.480;6.158;2022-12-05T14:06:05;6.90;99.90
52869;DHT22;39100;53.480;6.158;2022-12-05T14:21:53;6.90;99.90
52869;DHT22;39100;53.480;6.158;2022-12-05T14:24:50;6.90;99.90
52869;DHT22;39100;53.480;6.158;2022-12-05T14:27:29;6.90;99.90
52869;DHT22;39100;53.480;6.158;2022-12-05T14:30:05;6.90;99.90
52869;DHT22;39100;53.480;6.158;2022-12-05T14:32:39;6.90;99.90
52869;DHT22;39100;53.480;6.158;2022-12-05T14:35:12;6.90;99.90
52869;DHT22;39100;53.480;6.158;2022-12-05T14:40:45;6.90;99.90
52869;DHT22;39100;53.480;6.158;2022-12-05T14:43:39;6.90;99.90
52869;DHT22;39100;53.480;6.158;2022-12-05T14:46:07;6.90;99.90
52869;DHT22;39100;53.480;6.158;2022-12-05T14:48:40;7.00;99.90
52869;DHT22;39100;53.480;6.158;2022-12-05T14:53:53;7.00;99.90
52869;DHT22;39100;53.480;6.158;2022-12-05T14:56:21;7.00;99.90
52869;DHT22;39100;53.480;6.158;2022-12-05T15:01:26;6.90;99.90
52869;DHT22;39100;53.480;6.158;2022-12-05T15:04:08;6.90;99.90
52869;DHT22;39100;53.480;6.158;2022-12-05T15:06:49;6.90;99.90
52869;DHT22;39100;53.480;6.158;2022-12-05T15:12:03;6.90;99.90
52869;DHT22;39100;53.480;6.158;2022-12-05T15:14:36;7.00;99.90
52869;DHT22;39100;53.480;6.158;2022-12-05T15:17:06;7.00;99.90
52869;DHT22;39100;53.480;6.158;2022-12-05T15:19:43;6.90;99.90
52869;DHT22;39100;53.480;6.158;2022-12-05T15:22:12;7.00;99.90
52869;DHT22;39100;53.480;6.158;2022-12-05T15:24:39;6.90;99.90
52869;DHT22;39100;53.480;6.158;2022-12-05T15:27:09;7.00;99.90
52869;DHT22;39100;53.480;6.158;2022-12-05T15:29:36;6.90;99.90
52869;DHT22;39100;53.480;6.158;2022-12-05T15:37:19;6.90;99.90
52869;DHT22;39100;53.480;6.158;2022-12-05T15:39:51;6.90;99.90
52869;DHT22;39100;53.480;6.158;2022-12-05T15:42:27;6.90;99.90
52869;DHT22;39100;53.480;6.158;2022-12-05T15:45:18;6.90;99.90
52869;DHT22;39100;53.480;6.158;2022-12-05T15:47:55;6.90;99.90
52869;DHT22;39100;53.480;6.158;2022-12-05T15:50:32;6.90;99.90
52869;DHT22;39100;53.480;6.158;2022-12-05T15:53:09;6.90;99.90
52869;DHT22;39100;53.480;6.158;2022-12-05T15:55:39;6.90;99.90
52869;DHT22;39100;53.480;6.158;2022-12-05T15:58:30;7.50;99.90
52869;DHT22;39100;53.480;6.158;2022-12-05T16:04:06;6.80;99.90
52869;DHT22;39100;53.480;6.158;2022-12-05T16:06:46;6.70;99.90
52869;DHT22;39100;53.480;6.158;2022-12-05T16:09:18;6.80;99.90
52869;DHT22;39100;53.480;6.158;2022-12-05T16:14:17;6.80;99.90
52869;DHT22;39100;53.480;6.158;2022-12-05T16:16:43;6.80;99.90
52869;DHT22;39100;53.480;6.158;2022-12-05T16:19:20;6.80;99.90
52869;DHT22;39100;53.480;6.158;2022-12-05T16:22:00;6.80;99.90
52869;DHT22;39100;53.480;6.158;2022-12-05T16:24:30;6.80;99.90
52869;DHT22;39100;53.480;6.158;2022-12-05T16:27:02;6.80;99.90
52869;DHT22;39100;53.480;6.158;2022-12-05T16:29:30;6.80;99.90
52869;DHT22;39100;53.480;6.158;2022-12-05T16:31:59;6.80;99.90
52869;DHT22;39100;53.480;6.158;2022-12-05T16:34:26;6.80;99.90
52869;DHT22;39100;53.480;6.158;2022-12-05T16:36:54;6.80;99.90
52869;DHT22;39100;53.480;6.158;2022-12-05T16:39:21;6.80;99.90
52869;DHT22;39100;53.480;6.158;2022-12-05T16:41:47;6.80;99.90
52869;DHT22;39100;53.480;6.158;2022-12-05T16:47:23;6.80;99.90
52869;DHT22;39100;53.480;6.158;2022-12-05T16:49:49;6.80;99.90
52869;DHT22;39100;53.480;6.158;2022-12-05T16:52:15;6.80;99.90
52869;DHT22;39100;53.480;6.158;2022-12-05T16:54:42;6.80;99.90
52869;DHT22;39100;53.480;6.158;2022-12-05T16:57:12;6.80;99.90
52869;DHT22;39100;53.480;6.158;2022-12-05T16:59:39;6.80;99.90
52869;DHT22;39100;53.480;6.158;2022-12-05T17:02:14;6.70;99.90
52869;DHT22;39100;53.480;6.158;2022-12-05T17:04:40;6.80;99.90
52869;DHT22;39100;53.480;6.158;2022-12-05T17:07:06;6.70;99.90
52869;DHT22;39100;53.480;6.158;2022-12-05T17:09:31;6.80;99.90
52869;DHT22;39100;53.480;6.158;2022-12-05T17:12:20;6.80;99.90
52869;DHT22;39100;53.480;6.158;2022-12-05T17:14:46;6.80;99.90
52869;DHT22;39100;53.480;6.158;2022-12-05T17:17:13;6.80;99.90
52869;DHT22;39100;53.480;6.158;2022-12-05T17:19:40;6.80;99.90
52869;DHT22;39100;53.480;6.158;2022-12-05T17:22:06;6.80;99.90
52869;DHT22;39100;53.480;6.158;2022-12-05T17:24:31;6.80;99.90
52869;DHT22;39100;53.480;6.158;2022-12-05T17:26:57;6.80;99.90
52869;DHT22;39100;53.480;6.158;2022-12-05T17:29:23;6.80;99.90
52869;DHT22;39100;53.480;6.158;2022-12-05T17:31:48;6.80;99.90
52869;DHT22;39100;53.480;6.158;2022-12-05T17:34:15;6.80;99.90
52869;DHT22;39100;53.480;6.158;2022-12-05T17:36:45;6.80;99.90
52869;DHT22;39100;53.480;6.158;2022-12-05T17:39:11;6.90;99.90
52869;DHT22;39100;53.480;6.158;2022-12-05T17:41:37;6.90;99.90
52869;DHT22;39100;53.480;6.158;2022-12-05T17:44:03;6.90;99.90
52869;DHT22;39100;53.480;6.158;2022-12-05T17:46:29;6.90;99.90
52869;DHT22;39100;53.480;6.158;2022-12-05T17:48:55;6.90;99.90
52869;DHT22;39100;53.480;6.158;2022-12-05T17:51:21;6.90;99.90
52869;DHT22;39100;53.480;6.158;2022-12-05T17:53:48;6.90;99.90
52869;DHT22;39100;53.480;6.158;2022-12-05T17:56:14;6.90;99.90
52869;DHT22;39100;53.480;6.158;2022-12-05T17:58:40;6.90;99.90
52869;DHT22;39100;53.480;6.158;2022-12-05T18:01:06;6.90;99.90
52869;DHT22;39100;53.480;6.158;2022-12-05T18:03:31;6.90;99.90
52869;DHT22;39100;53.480;6.158;2022-12-05T18:05:57;6.90;99.90
52869;DHT22;39100;53.480;6.158;2022-12-05T18:08:23;7.00;99.90
52869;DHT22;39100;53.480;6.158;2022-12-05T18:10:49;7.00;99.90
52869;DHT22;39100;53.480;6.158;2022-12-05T18:13:16;7.00;99.90
52869;DHT22;39100;53.480;6.158;2022-12-05T18:15:44;7.20;99.90
52869;DHT22;39100;53.480;6.158;2022-12-05T18:18:14;7.00;99.90
52869;DHT22;39100;53.480;6.158;2022-12-05T18:20:39;7.10;99.90
52869;DHT22;39100;53.480;6.158;2022-12-05T18:23:05;7.00;99.90
52869;DHT22;39100;53.480;6.158;2022-12-05T18:25:30;7.00;99.90
52869;DHT22;39100;53.480;6.158;2022-12-05T18:27:57;7.10;99.90
52869;DHT22;39100;53.480;6.158;2022-12-05T18:30:23;7.10;99.90
52869;DHT22;39100;53.480;6.158;2022-12-05T18:32:49;7.10;99.90
52869;DHT22;39100;53.480;6.158;2022-12-05T18:35:14;7.10;99.90
52869;DHT22;39100;53.480;6.158;2022-12-05T18:37:40;7.10;99.90
52869;DHT22;39100;53.480;6.158;2022-12-05T18:40:07;7.10;99.90
52869;DHT22;39100;53.480;6.158;2022-12-05T18:42:34;7.10;99.90
52869;DHT22;39100;53.480;6.158;2022-12-05T18:44:59;7.10;99.90